Time;durP1;ratioP1;P1;durP2;ratioP2;P2;SDS_P1;SDS_P2;PMS_P1;PMS_P2;Temp;Humidity;BMP_temperature;BMP_pressure;BME280_temperature;BME280_humidity;BME280_pressure;Samples;Min_cycle;Max_cycle;Signal;HPM_P1;HPM_P2
2024/03/30 00:02:26;;;;;;;4.18;2.22;;;10.10;99.90;;;;;;5076581;28;20021;-73
2024/03/30 00:04:53;;;;;;;3.67;2.70;;;10.00;99.90;;;;;;5076751;28;20440;-73
2024/03/30 00:07:18;;;;;;;3.42;2.95;;;9.90;99.90;;;;;;5076748;28;20037;-73
2024/03/30 00:09:48;;;;;;;6.63;3.15;;;9.90;99.90;;;;;;5076206;28;20051;-73
2024/03/30 00:12:13;;;;;;;4.32;3.33;;;9.90;99.90;;;;;;5076622;28;20032;-73
2024/03/30 00:14:39;;;;;;;5.22;2.90;;;9.90;99.90;;;;;;5076512;28;20033;-73
2024/03/30 00:17:04;;;;;;;4.78;3.10;;;9.90;99.90;;;;;;5075884;28;20051;-73
2024/03/30 00:19:30;;;;;;;4.43;3.28;;;9.80;99.90;;;;;;5076061;28;20390;-73
2024/03/30 00:21:56;;;;;;;6.15;3.22;;;9.80;99.90;;;;;;5076418;28;20509;-73
2024/03/30 00:24:22;;;;;;;4.20;3.38;;;9.80;99.90;;;;;;5076046;28;20478;-72
2024/03/30 00:26:47;;;;;;;4.05;3.08;;;9.80;99.90;;;;;;5076304;28;20025;-72
2024/03/30 00:29:13;;;;;;;6.80;3.50;;;9.80;99.90;;;;;;5076222;28;20032;-72
2024/03/30 00:31:38;;;;;;;5.43;3.20;;;9.80;99.90;;;;;;5075870;28;20119;-72
2024/03/30 00:34:04;;;;;;;5.25;3.47;;;9.80;99.90;;;;;;5076228;28;20039;-73
2024/03/30 00:36:29;;;;;;;5.35;3.65;;;9.70;99.90;;;;;;5076176;28;20052;-72
2024/03/30 00:38:55;;;;;;;4.18;3.10;;;9.70;99.90;;;;;;5075670;28;20024;-72
2024/03/30 00:41:20;;;;;;;6.13;3.40;;;9.70;99.90;;;;;;5075618;28;20024;-72
2024/03/30 00:43:46;;;;;;;6.53;3.67;;;9.70;99.90;;;;;;5075940;28;20032;-72
2024/03/30 00:46:12;;;;;;;4.85;3.15;;;9.80;99.90;;;;;;5075973;28;20028;-72
2024/03/30 00:48:37;;;;;;;5.88;4.10;;;9.70;99.90;;;;;;5076041;28;20482;-72
2024/03/30 00:51:03;;;;;;;3.88;3.47;;;9.80;99.90;;;;;;5075984;28;20028;-72
2024/03/30 00:53:28;;;;;;;3.10;2.70;;;9.80;99.90;;;;;;5075519;28;20025;-72
2024/03/30 00:56:01;;;;;;;5.88;3.45;;;9.80;99.90;;;;;;5075748;28;20119;-72
2024/03/30 00:58:28;;;;;;;5.22;3.33;;;9.80;99.90;;;;;;5075390;28;20087;-72
2024/03/30 01:00:53;;;;;;;4.57;3.42;;;9.80;99.90;;;;;;5075790;28;20033;-72
2024/03/30 01:03:20;;;;;;;5.50;3.42;;;9.80;99.90;;;;;;5075431;28;20028;-72
2024/03/30 01:05:45;;;;;;;4.65;4.18;;;9.80;99.90;;;;;;5075118;28;20081;-72
2024/03/30 01:08:11;;;;;;;5.68;4.18;;;9.80;99.90;;;;;;5075664;28;20389;-72
2024/03/30 01:10:36;;;;;;;4.97;3.65;;;9.70;99.90;;;;;;5075579;28;20070;-72
2024/03/30 01:13:02;;;;;;;5.07;3.67;;;9.70;99.90;;;;;;5075570;28;20033;-72
2024/03/30 01:15:28;;;;;;;4.43;3.25;;;9.70;99.90;;;;;;5075437;28;20490;-72
2024/03/30 01:17:54;;;;;;;6.53;3.80;;;9.70;99.90;;;;;;5074872;28;20045;-72
2024/03/30 01:20:20;;;;;;;3.80;3.13;;;9.70;99.90;;;;;;5075460;28;20173;-72
2024/03/30 01:22:46;;;;;;;4.05;3.38;;;9.60;99.90;;;;;;5075454;28;20063;-72
2024/03/30 01:25:13;;;;;;;5.88;3.65;;;9.60;99.90;;;;;;5074948;28;20024;-72
2024/03/30 01:27:39;;;;;;;3.63;3.13;;;9.70;99.90;;;;;;5075191;28;20028;-72
2024/03/30 01:30:07;;;;;;;3.45;2.80;;;9.70;99.90;;;;;;5075265;28;20028;-72
2024/03/30 01:32:33;;;;;;;3.95;2.80;;;9.80;99.90;;;;;;5074809;28;20024;-72
2024/03/30 01:34:59;;;;;;;3.10;2.80;;;9.70;99.90;;;;;;5075152;28;20486;-72
2024/03/30 01:37:25;;;;;;;3.10;2.80;;;9.70;99.90;;;;;;5074525;28;20028;-72
2024/03/30 01:39:50;;;;;;;4.32;3.85;;;9.70;99.90;;;;;;5075033;28;20028;-72
2024/03/30 01:42:16;;;;;;;3.75;3.25;;;9.70;99.90;;;;;;5075170;28;20474;-72
2024/03/30 01:44:41;;;;;;;4.10;3.38;;;9.60;99.90;;;;;;5074857;28;20032;-72
2024/03/30 01:47:08;;;;;;;3.95;3.47;;;9.60;99.90;;;;;;5074820;28;20025;-72
2024/03/30 01:49:35;;;;;;;4.93;3.97;;;9.60;99.90;;;;;;5074501;28;20017;-72
2024/03/30 01:52:03;;;;;;;6.15;4.32;;;9.60;99.90;;;;;;5074366;28;20021;-72
2024/03/30 01:54:29;;;;;;;5.13;3.83;;;9.50;99.90;;;;;;5074333;28;20486;-72
2024/03/30 01:56:56;;;;;;;5.38;4.40;;;9.50;99.90;;;;;;5074727;28;20032;-72
2024/03/30 01:59:22;;;;;;;4.80;4.05;;;9.50;99.90;;;;;;5074276;28;20040;-72
2024/03/30 02:01:48;;;;;;;5.72;4.25;;;9.50;99.90;;;;;;5074669;28;20025;-72
2024/03/30 02:04:15;;;;;;;4.97;4.47;;;9.40;99.90;;;;;;5074560;28;20119;-72
2024/03/30 02:06:42;;;;;;;4.85;3.83;;;9.40;99.90;;;;;;5074398;28;20509;-72
2024/03/30 02:09:10;;;;;;;7.03;4.50;;;9.30;99.90;;;;;;5074263;28;20048;-72
2024/03/30 02:11:38;;;;;;;5.35;4.28;;;9.30;99.90;;;;;;5073992;28;20025;-72
2024/03/30 02:14:05;;;;;;;7.05;4.20;;;9.30;99.90;;;;;;5073981;28;20480;-72
2024/03/30 02:16:32;;;;;;;4.35;3.88;;;9.40;99.90;;;;;;5074124;28;20384;-72
2024/03/30 02:18:57;;;;;;;4.75;4.32;;;9.30;99.90;;;;;;5073053;28;20032;-72
2024/03/30 02:21:23;;;;;;;4.35;3.95;;;9.30;99.90;;;;;;5074177;28;20033;-72
2024/03/30 02:23:48;;;;;;;5.50;4.60;;;9.30;99.90;;;;;;5073762;28;20028;-72
2024/03/30 02:26:14;;;;;;;4.57;4.18;;;9.20;99.90;;;;;;5073628;28;20020;-72
2024/03/30 02:28:42;;;;;;;4.78;4.20;;;9.20;99.90;;;;;;5074106;28;20025;-72
2024/03/30 02:31:08;;;;;;;4.82;4.10;;;9.20;99.90;;;;;;5073606;28;20056;-72
2024/03/30 02:33:35;;;;;;;5.85;4.85;;;9.20;99.90;;;;;;5073968;28;20475;-72
2024/03/30 02:36:01;;;;;;;5.43;4.28;;;9.10;99.90;;;;;;5073832;28;20036;-72
2024/03/30 02:38:28;;;;;;;5.65;4.70;;;9.10;99.90;;;;;;5073750;28;20485;-72
2024/03/30 02:40:56;;;;;;;5.72;4.45;;;9.10;99.90;;;;;;5073834;28;20077;-72
2024/03/30 02:43:21;;;;;;;6.13;4.47;;;9.10;99.90;;;;;;5073503;28;20020;-72
2024/03/30 02:45:48;;;;;;;5.15;4.32;;;9.20;99.90;;;;;;5074001;28;20024;-72
2024/03/30 02:48:14;;;;;;;5.13;4.15;;;9.20;99.90;;;;;;5073718;28;20432;-72
2024/03/30 02:50:40;;;;;;;4.95;4.15;;;9.20;99.90;;;;;;5073270;28;20060;-72
2024/03/30 02:53:05;;;;;;;5.47;4.20;;;9.20;99.90;;;;;;5073254;28;20024;-72
2024/03/30 02:55:31;;;;;;;7.40;4.60;;;9.30;99.90;;;;;;5073262;28;20028;-72
2024/03/30 02:57:56;;;;;;;5.82;4.20;;;9.30;99.90;;;;;;5073129;28;20041;-72
2024/03/30 03:00:22;;;;;;;5.88;4.53;;;9.30;99.90;;;;;;5073630;28;20024;-73
2024/03/30 03:02:47;;;;;;;4.72;4.00;;;9.30;99.90;;;;;;5073653;28;20028;-73
2024/03/30 03:05:13;;;;;;;4.03;3.67;;;9.30;99.90;;;;;;5073568;28;20386;-72
2024/03/30 03:07:39;;;;;;;5.72;4.30;;;9.30;99.90;;;;;;5073539;28;20066;-72
2024/03/30 03:10:05;;;;;;;4.05;3.53;;;9.40;99.90;;;;;;5073370;28;20028;-73
2024/03/30 03:12:30;;;;;;;7.25;3.65;;;9.30;99.90;;;;;;5073459;28;20036;-73
2024/03/30 03:14:56;;;;;;;4.55;4.00;;;9.30;99.90;;;;;;5072975;28;20463;-73
2024/03/30 03:17:22;;;;;;;4.43;4.00;;;9.30;99.90;;;;;;5072881;28;20049;-72
2024/03/30 03:19:47;;;;;;;5.93;4.43;;;9.20;99.90;;;;;;5073508;28;20028;-72
2024/03/30 03:22:13;;;;;;;7.22;4.70;;;9.20;99.90;;;;;;5073339;28;20063;-72
2024/03/30 03:24:39;;;;;;;7.90;4.90;;;9.20;99.90;;;;;;5072880;28;20013;-72
2024/03/30 03:27:04;;;;;;;6.57;4.80;;;9.30;99.90;;;;;;5073280;28;20044;-72
2024/03/30 03:29:30;;;;;;;6.25;4.95;;;9.20;99.90;;;;;;5072988;28;20035;-72
2024/03/30 03:31:56;;;;;;;7.10;5.30;;;9.20;99.90;;;;;;5072902;28;20029;-72
2024/03/30 03:34:21;;;;;;;7.60;5.35;;;9.20;99.90;;;;;;5073207;28;20033;-72
2024/03/30 03:36:47;;;;;;;8.63;6.25;;;9.20;99.90;;;;;;5072637;28;20096;-72
2024/03/30 03:39:12;;;;;;;7.20;6.20;;;9.20;99.90;;;;;;5072878;28;20040;-72
2024/03/30 03:41:38;;;;;;;10.05;6.85;;;9.20;99.90;;;;;;5073124;28;20025;-72
2024/03/30 03:44:03;;;;;;;9.00;7.07;;;9.20;99.90;;;;;;5073124;28;20056;-72
2024/03/30 03:46:31;;;;;;;9.20;6.88;;;9.20;99.90;;;;;;5073021;28;20103;-73
2024/03/30 03:48:56;;;;;;;9.27;6.70;;;9.30;99.90;;;;;;5072661;28;20028;-73
2024/03/30 03:51:22;;;;;;;9.55;7.55;;;9.20;99.90;;;;;;5072615;28;20031;-73
2024/03/30 03:53:47;;;;;;;11.32;7.68;;;9.20;99.90;;;;;;5072885;28;20040;-72
2024/03/30 03:56:13;;;;;;;9.95;7.30;;;9.20;99.90;;;;;;5072962;28;20028;-72
2024/03/30 03:58:38;;;;;;;9.80;7.63;;;9.20;99.90;;;;;;5072475;28;20020;-72
2024/03/30 04:01:05;;;;;;;10.00;7.55;;;9.20;99.90;;;;;;5072969;28;20103;-72
2024/03/30 04:03:31;;;;;;;9.57;7.40;;;9.20;99.90;;;;;;5072875;28;20032;-72
2024/03/30 04:05:57;;;;;;;10.20;8.00;;;9.20;99.90;;;;;;5072884;28;20033;-72
2024/03/30 04:08:22;;;;;;;10.80;7.80;;;9.20;99.90;;;;;;5073150;28;20441;-72
2024/03/30 04:10:48;;;;;;;9.13;7.20;;;9.30;99.90;;;;;;5072516;28;20034;-72
2024/03/30 04:13:13;;;;;;;11.13;7.95;;;9.20;99.90;;;;;;5072763;28;20039;-72
2024/03/30 04:15:40;;;;;;;10.35;7.85;;;9.20;99.90;;;;;;5072431;28;20056;-72
2024/03/30 04:18:05;;;;;;;10.50;8.05;;;9.20;99.90;;;;;;5072304;28;20098;-72
2024/03/30 04:20:31;;;;;;;10.55;8.65;;;9.10;99.90;;;;;;5072336;28;20017;-72
2024/03/30 04:22:57;;;;;;;11.90;8.07;;;9.10;99.90;;;;;;5072679;28;20437;-72
2024/03/30 04:25:22;;;;;;;11.65;8.98;;;9.10;99.90;;;;;;5072268;28;20111;-72
2024/03/30 04:27:48;;;;;;;13.68;9.45;;;9.10;99.90;;;;;;5072198;28;20028;-72
2024/03/30 04:30:16;;;;;;;15.50;9.50;;;9.10;99.90;;;;;;5072726;28;20054;-72
2024/03/30 04:32:42;;;;;;;11.93;8.65;;;9.10;99.90;;;;;;5072212;28;20402;-72
2024/03/30 04:35:08;;;;;;;13.07;10.00;;;9.10;99.90;;;;;;5072258;28;20028;-72
2024/03/30 04:37:33;;;;;;;14.10;10.25;;;9.10;99.90;;;;;;5072552;28;20025;-72
2024/03/30 04:39:59;;;;;;;14.95;10.45;;;9.10;99.90;;;;;;5072537;28;20024;-72
2024/03/30 04:42:24;;;;;;;13.15;9.65;;;9.10;99.90;;;;;;5075272;28;20394;-72
2024/03/30 04:44:50;;;;;;;12.70;9.90;;;9.10;99.90;;;;;;5076132;28;20029;-72
2024/03/30 04:47:16;;;;;;;14.98;10.40;;;9.10;99.90;;;;;;5076046;28;20036;-72
2024/03/30 04:49:41;;;;;;;13.07;9.85;;;9.10;99.90;;;;;;5076005;28;20029;-72
2024/03/30 04:52:07;;;;;;;14.88;9.75;;;9.10;99.90;;;;;;5075543;28;20027;-73
2024/03/30 04:54:32;;;;;;;14.75;10.00;;;9.10;99.90;;;;;;5075870;28;20031;-72
2024/03/30 04:56:58;;;;;;;13.02;9.35;;;9.10;99.90;;;;;;5075890;28;20108;-73
2024/03/30 04:59:23;;;;;;;14.52;10.38;;;9.10;99.90;;;;;;5075561;28;20028;-72
2024/03/30 05:01:49;;;;;;;15.13;10.63;;;9.10;99.90;;;;;;5075815;28;20029;-72
2024/03/30 05:04:15;;;;;;;13.95;10.55;;;9.10;99.90;;;;;;5075369;28;20032;-72
2024/03/30 05:06:40;;;;;;;13.95;9.98;;;9.20;99.90;;;;;;5075341;28;20025;-72
2024/03/30 05:09:06;;;;;;;14.35;10.02;;;9.20;99.90;;;;;;5075284;28;20033;-73
2024/03/30 05:11:31;;;;;;;15.07;11.02;;;9.20;99.90;;;;;;5075613;28;20118;-72
2024/03/30 05:13:57;;;;;;;16.00;10.82;;;9.20;99.90;;;;;;5075634;28;20478;-73
2024/03/30 05:16:22;;;;;;;14.18;10.20;;;9.20;99.90;;;;;;5074999;28;20045;-72
2024/03/30 05:18:48;;;;;;;20.00;10.57;;;9.20;99.90;;;;;;5075138;28;20375;-72
2024/03/30 05:21:13;;;;;;;15.77;10.20;;;9.20;99.90;;;;;;5075442;28;20111;-72
2024/03/30 05:23:39;;;;;;;14.63;10.35;;;9.20;99.90;;;;;;5074927;28;20074;-72
2024/03/30 05:26:06;;;;;;;16.00;11.63;;;9.20;99.90;;;;;;5074986;28;20115;-72
2024/03/30 05:28:34;;;;;;;16.48;11.70;;;9.20;99.90;;;;;;5074940;28;20074;-73
2024/03/30 05:31:10;;;;;;;14.75;10.63;;;9.20;99.90;;;;;;5075303;28;20024;-72
2024/03/30 05:33:36;;;;;;;13.98;10.43;;;9.20;99.90;;;;;;5075157;28;20466;-73
2024/03/30 05:36:01;;;;;;;15.20;10.52;;;9.30;99.90;;;;;;5074787;28;20082;-73
2024/03/30 05:38:27;;;;;;;13.85;10.07;;;9.30;99.90;;;;;;5074925;28;20028;-73
2024/03/30 05:40:53;;;;;;;15.20;10.52;;;9.40;99.90;;;;;;5074955;28;20063;-73
2024/03/30 05:43:18;;;;;;;17.83;11.38;;;9.40;99.90;;;;;;5074932;28;20023;-72
2024/03/30 05:45:48;;;;;;;14.07;10.02;;;9.40;99.90;;;;;;5074900;28;20107;-73
2024/03/30 05:48:14;;;;;;;14.77;9.80;;;9.40;99.90;;;;;;5074812;28;20032;-73
2024/03/30 05:50:39;;;;;;;15.57;10.88;;;9.50;99.90;;;;;;5074403;28;20021;-73
2024/03/30 05:53:05;;;;;;;13.27;9.93;;;9.50;99.90;;;;;;5074664;28;20067;-73
2024/03/30 05:55:31;;;;;;;13.88;9.90;;;9.50;99.90;;;;;;5074951;28;20032;-72
2024/03/30 05:58:03;;;;;;;14.25;9.48;;;9.50;99.90;;;;;;5074431;28;20024;-73
2024/03/30 06:00:28;;;;;;;14.23;9.82;;;9.60;99.90;;;;;;5074755;28;20028;-73
2024/03/30 06:02:54;;;;;;;13.52;9.45;;;9.70;99.90;;;;;;5075000;28;20036;-73
2024/03/30 06:05:20;;;;;;;11.60;8.30;;;9.70;99.90;;;;;;5074605;28;20025;-73
2024/03/30 06:07:45;;;;;;;11.63;8.50;;;9.70;99.90;;;;;;5074264;28;20145;-72
2024/03/30 06:10:11;;;;;;;12.32;8.52;;;9.80;99.90;;;;;;5074315;28;20120;-72
2024/03/30 06:12:37;;;;;;;11.98;8.45;;;9.90;99.90;;;;;;5074176;28;20078;-73
2024/03/30 06:15:04;;;;;;;11.95;8.25;;;9.90;99.90;;;;;;5074128;28;20486;-72
2024/03/30 06:17:33;;;;;;;12.05;8.77;;;10.00;99.90;;;;;;5073994;28;20494;-72
2024/03/30 06:20:00;;;;;;;12.05;8.50;;;10.00;99.90;;;;;;5074453;28;20064;-73
2024/03/30 06:22:26;;;;;;;12.38;7.75;;;10.10;99.90;;;;;;5074077;28;20016;-73
2024/03/30 06:24:52;;;;;;;12.20;7.90;;;10.20;99.90;;;;;;5074187;28;20028;-73
2024/03/30 06:27:18;;;;;;;14.40;8.05;;;10.20;99.90;;;;;;5074212;28;20489;-73
2024/03/30 06:29:43;;;;;;;11.25;7.68;;;10.30;99.90;;;;;;5073844;28;20055;-73
2024/03/30 06:32:09;;;;;;;11.35;8.10;;;10.40;99.90;;;;;;5074201;28;20032;-73
2024/03/30 06:34:35;;;;;;;9.05;6.85;;;10.50;99.90;;;;;;5073681;28;20132;-73
2024/03/30 06:37:00;;;;;;;10.80;7.70;;;10.60;99.90;;;;;;5073964;28;20028;-72
2024/03/30 06:43:40;;;;;;;9.35;6.70;;;10.70;99.90;;;;;;5073461;28;20119;-72
2024/03/30 06:44:57;;;;;;;11.43;6.82;;;10.80;99.90;;;;;;5073477;28;20064;-72
2024/03/30 06:47:23;;;;;;;12.02;6.63;;;10.90;99.90;;;;;;5073494;28;20052;-72
2024/03/30 06:49:48;;;;;;;10.38;6.63;;;11.00;99.90;;;;;;5073648;28;20032;-72
2024/03/30 06:52:14;;;;;;;11.63;6.97;;;11.00;99.90;;;;;;5073282;28;20024;-73
2024/03/30 06:54:39;;;;;;;9.98;6.68;;;11.00;99.90;;;;;;5073245;28;20032;-73
2024/03/30 06:57:05;;;;;;;9.45;7.07;;;11.00;99.90;;;;;;5073589;28;20012;-73
2024/03/30 06:59:30;;;;;;;8.15;6.40;;;11.10;99.90;;;;;;5073145;28;20020;-72
2024/03/30 07:01:56;;;;;;;10.40;6.47;;;11.20;99.90;;;;;;5073614;28;20029;-72
2024/03/30 07:04:21;;;;;;;10.15;6.63;;;11.20;99.90;;;;;;5072885;28;20474;-72
2024/03/30 07:06:47;;;;;;;9.13;5.32;;;11.20;99.90;;;;;;5073069;28;20028;-72
2024/03/30 07:09:12;;;;;;;10.13;5.22;;;11.20;99.90;;;;;;5073344;28;20032;-73
2024/03/30 07:11:38;;;;;;;10.15;5.05;;;11.30;99.90;;;;;;5073357;28;20032;-73
2024/03/30 07:14:04;;;;;;;14.73;5.65;;;11.30;99.90;;;;;;5073056;28;20035;-73
2024/03/30 07:16:30;;;;;;;10.52;5.53;;;11.30;99.90;;;;;;5073202;28;20145;-72
2024/03/30 07:18:56;;;;;;;11.18;5.57;;;11.40;99.90;;;;;;5073163;28;20568;-73
2024/03/30 07:21:21;;;;;;;12.10;5.22;;;11.50;99.90;;;;;;5073347;28;20482;-73
2024/03/30 07:23:47;;;;;;;8.68;4.65;;;11.60;99.90;;;;;;5073217;28;20037;-73
2024/03/30 07:26:12;;;;;;;9.30;4.55;;;11.90;99.90;;;;;;5073194;28;20111;-73
2024/03/30 07:28:38;;;;;;;8.80;4.03;;;12.30;97.90;;;;;;5072842;28;20132;-72
2024/03/30 07:31:06;;;;;;;8.60;4.32;;;12.50;81.30;;;;;;5072843;28;20502;-72
2024/03/30 07:33:32;;;;;;;8.80;3.60;;;13.10;45.90;;;;;;5073331;28;20433;-72
2024/03/30 07:35:58;;;;;;;6.88;2.95;;;13.90;1.00;;;;;;5073399;28;20123;-73
2024/03/30 07:38:27;;;;;;;12.73;3.38;;;14.30;1.00;;;;;;5072817;28;20167;-72
2024/03/30 07:40:53;;;;;;;11.45;3.95;;;14.00;1.00;;;;;;5072906;28;20501;-72
2024/03/30 07:43:19;;;;;;;12.38;3.60;;;13.90;1.00;;;;;;5072988;28;20025;-72
2024/03/30 07:45:44;;;;;;;13.98;4.07;;;13.60;1.00;;;;;;5072658;28;20019;-73
2024/03/30 07:48:10;;;;;;;15.23;3.28;;;13.50;1.00;;;;;;5073019;28;20123;-72
2024/03/30 07:50:36;;;;;;;11.68;3.45;;;13.40;1.00;;;;;;5072966;28;20071;-73
2024/03/30 07:53:03;;;;;;;10.52;3.17;;;13.40;1.00;;;;;;5073043;28;20064;-72
2024/03/30 07:55:29;;;;;;;10.63;2.90;;;13.30;1.00;;;;;;5072583;28;20031;-72
2024/03/30 07:57:55;;;;;;;9.68;3.55;;;13.20;1.00;;;;;;5072542;28;20024;-72
2024/03/30 08:00:21;;;;;;;10.38;3.58;;;13.10;1.00;;;;;;5072893;28;20082;-73
2024/03/30 08:02:46;;;;;;;6.68;3.40;;;13.10;1.90;;;;;;5072835;28;20039;-72
2024/03/30 08:05:12;;;;;;;11.65;4.50;;;13.00;5.80;;;;;;5072570;28;20054;-72
2024/03/30 08:07:37;;;;;;;10.52;3.55;;;13.00;16.40;;;;;;5072852;28;20025;-72
2024/03/30 08:10:03;;;;;;;10.80;3.72;;;13.00;20.60;;;;;;5072341;28;20017;-72
2024/03/30 08:12:29;;;;;;;13.82;3.83;;;13.00;24.00;;;;;;5072519;28;20024;-72
2024/03/30 08:14:54;;;;;;;8.75;3.40;;;13.10;21.30;;;;;;5072918;28;20032;-72
2024/03/30 08:17:20;;;;;;;9.98;3.42;;;13.10;19.40;;;;;;5074844;28;20059;-72
2024/03/30 08:19:46;;;;;;;11.82;3.63;;;13.10;21.30;;;;;;5076494;28;20050;-73
2024/03/30 08:22:11;;;;;;;9.00;3.22;;;13.20;18.50;;;;;;5076388;28;20028;-73
2024/03/30 08:24:37;;;;;;;10.20;3.08;;;13.30;17.30;;;;;;5076109;28;20024;-73
2024/03/30 08:27:04;;;;;;;11.73;3.55;;;13.40;16.20;;;;;;5075981;28;20021;-73
2024/03/30 08:29:29;;;;;;;10.82;3.13;;;13.50;10.20;;;;;;5076420;28;20025;-72
2024/03/30 08:31:55;;;;;;;10.88;2.90;;;13.60;1.70;;;;;;5076065;28;20387;-72
2024/03/30 08:34:21;;;;;;;16.70;3.40;;;13.80;1.00;;;;;;5076172;28;20524;-72
2024/03/30 08:36:46;;;;;;;17.50;3.25;;;13.80;1.00;;;;;;5076223;28;20047;-72
2024/03/30 08:39:12;;;;;;;16.13;3.00;;;14.00;1.00;;;;;;5075680;28;20024;-72
2024/03/30 08:41:38;;;;;;;17.10;3.03;;;14.20;1.00;;;;;;5076166;28;20059;-73
2024/03/30 08:44:05;;;;;;;16.85;3.47;;;14.30;1.00;;;;;;5076077;28;20021;-73
2024/03/30 08:46:31;;;;;;;14.45;3.10;;;14.40;1.00;;;;;;5076117;28;20021;-73
2024/03/30 08:49:04;;;;;;;16.20;3.55;;;14.40;1.00;;;;;;5076192;28;20375;-72
2024/03/30 08:51:30;;;;;;;20.50;3.55;;;14.50;1.00;;;;;;5075981;28;20059;-72
2024/03/30 08:54:00;;;;;;;21.58;3.03;;;14.70;1.00;;;;;;5075614;28;20451;-72
2024/03/30 08:56:26;;;;;;;25.10;4.45;;;14.90;1.00;;;;;;5075764;28;20078;-73
2024/03/30 08:58:51;;;;;;;17.77;5.28;;;15.10;99.90;;;;;;5075372;28;20036;-73
2024/03/30 09:01:17;;;;;;;21.15;10.43;;;15.30;99.90;;;;;;5075681;28;20040;-72
2024/03/30 09:03:42;;;;;;;27.42;10.70;;;15.50;99.90;;;;;;5075446;28;20025;-72
2024/03/30 09:06:08;;;;;;;27.40;10.27;;;15.80;99.90;;;;;;5075692;28;20394;-73
2024/03/30 09:08:33;;;;;;;39.92;18.55;;;16.10;99.90;;;;;;5075318;28;20492;-73
2024/03/30 09:10:59;;;;;;;49.78;24.15;;;16.50;99.90;;;;;;5075591;28;20394;-73
2024/03/30 09:13:24;;;;;;;60.40;25.52;;;16.70;1.00;;;;;;5075714;28;20060;-73
2024/03/30 09:15:50;;;;;;;43.15;23.60;;;16.90;1.00;;;;;;5074944;28;20029;-73
2024/03/30 09:18:15;;;;;;;28.17;9.98;;;17.10;99.90;;;;;;5075061;28;20394;-73
2024/03/30 09:20:41;;;;;;;23.77;8.23;;;17.30;99.90;;;;;;5075474;28;20386;-73
2024/03/30 09:23:07;;;;;;;17.67;4.03;;;17.60;3.40;;;;;;5075072;28;20394;-74
2024/03/30 09:25:34;;;;;;;14.30;3.13;;;18.10;1.00;;;;;;5075008;28;20554;-74
2024/03/30 09:27:59;;;;;;;22.83;3.78;;;18.80;36.90;;;;;;5074463;28;20043;-74
2024/03/30 09:30:25;;;;;;;19.70;3.17;;;19.60;1.00;;;;;;5074815;28;20024;-73
2024/03/30 09:32:50;;;;;;;17.38;3.58;;;20.40;46.40;;;;;;5075171;28;20074;-72
2024/03/30 09:35:16;;;;;;;21.25;3.72;;;20.70;99.90;;;;;;5075113;28;20176;-72
2024/03/30 09:37:41;;;;;;;16.00;3.88;;;20.60;1.00;;;;;;5075017;28;20028;-72
2024/03/30 09:40:08;;;;;;;25.27;3.38;;;20.10;99.90;;;;;;5074986;28;20054;-73
2024/03/30 09:42:36;;;;;;;26.77;4.55;;;19.60;1.00;;;;;;5074613;28;20029;-73
2024/03/30 09:45:02;;;;;;;17.38;3.47;;;19.20;1.00;;;;;;5074652;28;20546;-73
2024/03/30 09:47:30;;;;;;;29.20;4.22;;;19.10;99.90;;;;;;5074676;28;20016;-73
2024/03/30 09:50:00;;;;;;;32.38;4.35;;;18.80;1.00;;;;;;5074946;28;20032;-73
2024/03/30 09:52:28;;;;;;;26.52;4.03;;;18.80;99.90;;;;;;5074961;28;20478;-73
2024/03/30 09:54:58;;;;;;;27.33;4.28;;;19.20;99.90;;;;;;5074311;28;20032;-73
2024/03/30 09:57:24;;;;;;;25.02;3.85;;;19.60;34.40;;;;;;5074927;28;20024;-73
2024/03/30 09:59:50;;;;;;;22.80;3.72;;;19.60;1.00;;;;;;5074343;28;20024;-72
2024/03/30 10:02:16;;;;;;;27.88;4.35;;;19.30;99.90;;;;;;5074268;28;20029;-74
2024/03/30 10:04:41;;;;;;;37.42;4.72;;;19.20;1.00;;;;;;5074419;28;20055;-73
2024/03/30 10:07:12;;;;;;;31.05;4.10;;;19.00;1.00;;;;;;5074521;28;20474;-72
2024/03/30 10:09:38;;;;;;;26.05;4.40;;;19.00;1.00;;;;;;5074470;28;20463;-72
2024/03/30 10:12:12;;;;;;;29.55;4.65;;;18.80;1.00;;;;;;5074683;28;20064;-71
2024/03/30 10:14:43;;;;;;;28.75;4.70;;;19.00;99.90;;;;;;5074317;28;20482;-71
2024/03/30 10:17:10;;;;;;;30.35;5.15;;;19.20;99.90;;;;;;5074079;28;20154;-72
2024/03/30 10:19:37;;;;;;;38.00;5.50;;;19.20;99.90;;;;;;5073776;28;20028;-72
2024/03/30 10:22:04;;;;;;;27.02;4.93;;;19.40;90.30;;;;;;5074251;28;20482;-73
2024/03/30 10:24:30;;;;;;;32.53;4.60;;;19.40;97.20;;;;;;5074304;28;20386;-73
2024/03/30 10:26:56;;;;;;;35.45;5.00;;;19.30;1.00;;;;;;5074209;28;20029;-72
2024/03/30 10:29:22;;;;;;;33.92;5.05;;;19.30;46.80;;;;;;5074006;28;20028;-72
2024/03/30 10:31:48;;;;;;;33.72;4.75;;;19.50;84.80;;;;;;5073865;28;20036;-72
2024/03/30 10:34:13;;;;;;;30.77;5.20;;;19.60;56.40;;;;;;5073611;28;20028;-73
2024/03/30 10:36:39;;;;;;;39.15;5.65;;;19.60;1.00;;;;;;5073437;28;20030;-72
2024/03/30 10:39:05;;;;;;;33.25;5.28;;;19.60;1.00;;;;;;5073054;28;20115;-73
2024/03/30 10:41:31;;;;;;;51.50;6.30;;;19.60;1.00;;;;;;5073562;28;20405;-72
2024/03/30 10:43:56;;;;;;;40.92;5.47;;;19.80;1.00;;;;;;5073358;28;20406;-74
2024/03/30 10:46:23;;;;;;;44.20;6.75;;;19.90;1.00;;;;;;5073803;28;20039;-74
2024/03/30 10:48:51;;;;;;;43.47;6.07;;;20.00;1.00;;;;;;5073348;28;20083;-73
2024/03/30 10:51:17;;;;;;;50.42;6.55;;;20.00;1.00;;;;;;5073718;28;20488;-73
2024/03/30 10:53:43;;;;;;;47.22;6.97;;;20.00;1.00;;;;;;5073347;28;20020;-73
2024/03/30 10:56:10;;;;;;;41.70;6.63;;;19.80;1.00;;;;;;5073541;28;20032;-73
2024/03/30 10:58:37;;;;;;;55.38;6.68;;;20.00;1.00;;;;;;5073479;28;20028;-73
2024/03/30 11:01:05;;;;;;;47.08;6.10;;;20.10;1.00;;;;;;5073495;28;20158;-73
2024/03/30 11:03:32;;;;;;;39.55;6.07;;;20.30;1.00;;;;;;5073401;28;20020;-74
2024/03/30 11:05:59;;;;;;;42.20;6.25;;;20.80;1.00;;;;;;5073495;28;20028;-73
2024/03/30 11:08:25;;;;;;;38.67;5.75;;;20.80;1.00;;;;;;5073189;28;20093;-73
2024/03/30 11:10:52;;;;;;;61.15;7.13;;;20.80;1.00;;;;;;5073002;28;20394;-73
2024/03/30 11:13:17;;;;;;;58.75;8.18;;;20.60;99.90;;;;;;5073000;28;20033;-73
2024/03/30 11:15:43;;;;;;;48.78;8.13;;;20.60;99.90;;;;;;5073321;28;20393;-73
2024/03/30 11:18:19;;;;;;;62.13;8.88;;;20.40;99.90;;;;;;5072729;28;20517;-74
2024/03/30 11:20:55;;;;;;;52.65;8.05;;;20.40;99.90;;;;;;5073214;28;20031;-73
2024/03/30 11:23:48;;;;;;;51.78;7.07;;;20.30;99.90;;;;;;5073130;28;20074;-72
2024/03/30 11:26:17;;;;;;;59.03;7.47;;;20.30;99.90;;;;;;5072755;28;20032;-72
2024/03/30 11:28:50;;;;;;;62.70;7.72;;;20.40;99.90;;;;;;5072813;28;20056;-72
2024/03/30 11:31:49;;;;;;;54.58;7.97;;;20.40;99.90;;;;;;5073206;28;20037;-72
2024/03/30 11:34:39;;;;;;;52.47;8.35;;;20.20;99.90;;;;;;5072551;28;20032;-73
2024/03/30 11:37:17;;;;;;;57.40;8.52;;;20.10;99.90;;;;;;5073003;28;20024;-74
2024/03/30 11:39:54;;;;;;;69.13;8.30;;;20.10;99.90;;;;;;5072761;28;20028;-72
2024/03/30 11:42:43;;;;;;;60.40;8.43;;;20.10;99.90;;;;;;5073037;28;20417;-72
2024/03/30 11:45:13;;;;;;;58.72;8.68;;;20.00;99.90;;;;;;5073014;28;20033;-73
2024/03/30 11:47:41;;;;;;;58.55;7.88;;;20.10;99.90;;;;;;5072710;28;20086;-72
2024/03/30 11:50:08;;;;;;;63.63;8.43;;;20.10;99.90;;;;;;5073811;28;20032;-73
2024/03/30 11:52:44;;;;;;;62.33;8.82;;;20.10;99.90;;;;;;5076740;28;20501;-74
2024/03/30 11:55:09;;;;;;;53.05;8.45;;;19.90;99.90;;;;;;5076721;28;20381;-72
2024/03/30 11:57:35;;;;;;;75.50;9.40;;;19.90;99.90;;;;;;5076677;28;20021;-73
2024/03/30 12:00:00;;;;;;;58.13;9.50;;;19.90;99.90;;;;;;5076986;28;20032;-74
2024/03/30 12:02:29;;;;;;;47.67;7.45;;;19.90;99.90;;;;;;5076727;28;20032;-72
2024/03/30 12:05:01;;;;;;;60.35;7.80;;;19.90;99.90;;;;;;5076440;28;20107;-72
2024/03/30 12:07:34;;;;;;;60.53;8.15;;;19.80;99.90;;;;;;5076985;28;20393;-73
2024/03/30 12:10:03;;;;;;;51.60;6.97;;;19.70;99.90;;;;;;5076428;28;20364;-72
2024/03/30 12:12:29;;;;;;;56.63;8.30;;;19.60;99.90;;;;;;5076462;28;20259;-74
2024/03/30 12:14:56;;;;;;;55.85;7.68;;;19.40;99.90;;;;;;5076247;28;20021;-73
2024/03/30 12:17:23;;;;;;;57.40;7.32;;;19.30;99.90;;;;;;5075949;28;20098;-73
2024/03/30 12:19:49;;;;;;;51.13;7.10;;;19.20;99.90;;;;;;5076609;28;20475;-73
2024/03/30 12:22:15;;;;;;;49.10;7.55;;;19.30;99.90;;;;;;5076483;28;20029;-73
2024/03/30 12:24:41;;;;;;;56.08;7.38;;;19.30;99.90;;;;;;5076473;28;20035;-72
2024/03/30 12:27:07;;;;;;;62.03;8.23;;;19.10;99.90;;;;;;5076503;28;20486;-73
2024/03/30 12:29:33;;;;;;;56.55;6.80;;;19.00;99.90;;;;;;5076117;28;20501;-73
2024/03/30 12:31:59;;;;;;;47.05;7.13;;;18.90;99.90;;;;;;5076428;28;20033;-73
2024/03/30 12:34:26;;;;;;;59.90;7.78;;;18.80;99.90;;;;;;5075977;28;20111;-73
2024/03/30 12:36:54;;;;;;;46.40;7.82;;;18.80;99.90;;;;;;5076095;28;20090;-74
2024/03/30 12:39:20;;;;;;;60.85;8.65;;;18.80;1.00;;;;;;5075481;28;20115;-74
2024/03/30 12:41:47;;;;;;;54.58;6.93;;;18.70;1.00;;;;;;5076160;28;20502;-72
2024/03/30 12:44:13;;;;;;;54.10;7.55;;;18.70;1.00;;;;;;5075782;28;20021;-73
2024/03/30 12:46:38;;;;;;;58.15;8.65;;;18.50;1.00;;;;;;5075684;28;20025;-72